Time;durP1;ratioP1;P1;durP2;ratioP2;P2;SDS_P1;SDS_P2;PMS_P1;PMS_P2;Temp;Humidity;BMP_temperature;BMP_pressure;BME280_temperature;BME280_humidity;BME280_pressure;Samples;Min_cycle;Max_cycle;Signal;HPM_P1;HPM_P2
2022/06/14 00:02:54;;;;;;;1.92;1.83;;;23.00;59.70;;;;;;5034489;28;20040;-21
2022/06/14 00:05:20;;;;;;;2.40;2.20;;;23.10;59.60;;;;;;5035109;28;20911;-22
2022/06/14 00:07:45;;;;;;;2.03;1.83;;;23.00;59.60;;;;;;5036591;28;20374;-21
2022/06/14 00:10:11;;;;;;;1.80;1.70;;;23.00;59.70;;;;;;5035951;28;20049;-21
2022/06/14 00:12:36;;;;;;;1.90;1.80;;;23.00;59.70;;;;;;5036731;28;20153;-21
2022/06/14 00:15:02;;;;;;;1.90;1.80;;;23.00;59.70;;;;;;5034973;28;20416;-22
2022/06/14 00:17:28;;;;;;;1.85;1.67;;;23.00;59.70;;;;;;5036410;28;20132;-21
2022/06/14 00:19:53;;;;;;;2.20;1.63;;;23.00;59.60;;;;;;5035227;28;20037;-22
2022/06/14 00:22:19;;;;;;;1.80;1.70;;;23.00;59.60;;;;;;5035483;28;20061;-21
2022/06/14 00:24:44;;;;;;;1.80;1.70;;;23.00;59.60;;;;;;5036372;28;20037;-21
2022/06/14 00:27:10;;;;;;;2.15;1.90;;;23.00;59.50;;;;;;5032396;28;20397;-21
2022/06/14 00:29:36;;;;;;;1.88;1.70;;;23.00;59.60;;;;;;5034634;28;20041;-22
2022/06/14 00:32:01;;;;;;;2.08;1.88;;;23.00;59.50;;;;;;5035574;28;20037;-21
2022/06/14 00:34:27;;;;;;;1.90;1.80;;;23.00;59.50;;;;;;5034015;28;20510;-22
2022/06/14 00:36:53;;;;;;;1.60;1.50;;;23.00;59.50;;;;;;5035179;28;20509;-23
2022/06/14 00:39:19;;;;;;;1.85;1.75;;;23.00;59.50;;;;;;5035855;28;20096;-21
2022/06/14 00:41:46;;;;;;;1.95;1.85;;;23.00;59.50;;;;;;5034287;28;20049;-21
2022/06/14 00:44:23;;;;;;;1.77;1.67;;;23.00;59.50;;;;;;5034378;28;20120;-22
2022/06/14 00:47:03;;;;;;;1.70;1.60;;;23.00;59.40;;;;;;5033659;28;20478;-21
2022/06/14 00:49:36;;;;;;;1.67;1.58;;;23.00;59.40;;;;;;5032910;28;20046;-22
2022/06/14 00:52:17;;;;;;;1.90;1.80;;;23.00;59.50;;;;;;5033181;28;20041;-22
2022/06/14 00:54:43;;;;;;;2.13;1.98;;;23.00;59.50;;;;;;5035627;28;20037;-22
2022/06/14 00:57:12;;;;;;;1.65;1.50;;;23.00;59.40;;;;;;5030639;28;20441;-22
2022/06/14 00:59:43;;;;;;;1.85;1.75;;;23.10;59.30;;;;;;5033023;28;20049;-22
2022/06/14 01:02:20;;;;;;;1.75;1.65;;;23.00;59.30;;;;;;5016225;28;20057;-22
2022/06/14 01:04:46;;;;;;;1.98;1.63;;;23.00;59.30;;;;;;5032934;28;20112;-21
2022/06/14 01:07:22;;;;;;;1.85;1.75;;;23.00;59.40;;;;;;5033792;28;20064;-21
2022/06/14 01:09:51;;;;;;;1.90;1.80;;;23.00;59.50;;;;;;5031624;28;20033;-21
2022/06/14 01:12:19;;;;;;;1.70;1.60;;;23.00;59.60;;;;;;5031890;28;20103;-21
2022/06/14 01:15:09;;;;;;;1.70;1.60;;;23.00;59.50;;;;;;5031529;28;20033;-22
2022/06/14 01:17:41;;;;;;;1.70;1.60;;;23.00;59.40;;;;;;5029781;28;20057;-21
2022/06/14 01:20:08;;;;;;;1.70;1.60;;;23.00;59.40;;;;;;5032235;28;20029;-21
2022/06/14 01:22:33;;;;;;;1.60;1.50;;;23.00;59.40;;;;;;5032962;28;20045;-21
2022/06/14 01:25:00;;;;;;;1.55;1.45;;;23.00;59.50;;;;;;5034243;28;20131;-22
2022/06/14 01:27:26;;;;;;;1.70;1.60;;;23.00;59.50;;;;;;5032845;28;20069;-22
2022/06/14 01:29:56;;;;;;;1.48;1.38;;;23.00;59.40;;;;;;5033240;28;20057;-22
2022/06/14 01:32:22;;;;;;;1.90;1.80;;;23.00;59.40;;;;;;5045253;28;20041;-20
2022/06/14 01:34:53;;;;;;;1.50;1.40;;;23.00;59.50;;;;;;5032605;28;20047;-21
2022/06/14 01:37:20;;;;;;;1.40;1.30;;;22.90;59.50;;;;;;5033184;28;20119;-20
2022/06/14 01:39:46;;;;;;;1.67;1.50;;;23.00;59.40;;;;;;5033395;28;20066;-21
2022/06/14 01:42:14;;;;;;;1.50;1.40;;;22.90;59.50;;;;;;5030909;28;20072;-20
2022/06/14 01:44:43;;;;;;;1.20;1.20;;;22.90;59.40;;;;;;5034728;28;20041;-21
2022/06/14 01:47:27;;;;;;;1.27;1.20;;;22.90;59.40;;;;;;5034345;28;20129;-22
2022/06/14 01:53:16;;;;;;;2.03;1.67;;;23.00;59.40;;;;;;5031742;28;20439;-22
2022/06/14 01:55:46;;;;;;;1.30;1.20;;;23.00;59.40;;;;;;5032473;28;20052;-20
2022/06/14 01:58:29;;;;;;;1.48;1.38;;;22.90;59.50;;;;;;5029478;28;20041;-22
2022/06/14 02:01:25;;;;;;;1.60;1.50;;;22.90;59.50;;;;;;5032600;28;20048;-22
2022/06/14 02:04:37;;;;;;;1.17;1.17;;;22.90;59.50;;;;;;5030925;28;20040;-22
2022/06/14 02:07:24;;;;;;;1.30;1.20;;;22.90;59.50;;;;;;5032532;28;20072;-22
2022/06/14 02:10:24;;;;;;;1.27;1.20;;;22.90;59.50;;;;;;5032294;28;20045;-21
2022/06/14 02:13:15;;;;;;;1.35;1.25;;;22.90;59.50;;;;;;5030994;28;20120;-22
2022/06/14 02:16:04;;;;;;;1.00;1.00;;;22.90;59.50;;;;;;5032916;28;20053;-21
2022/06/14 02:19:07;;;;;;;1.00;1.00;;;22.90;59.50;;;;;;5030486;28;20049;-21
2022/06/14 02:21:36;;;;;;;1.20;1.10;;;22.90;59.50;;;;;;5032015;28;20049;-21
2022/06/14 02:24:10;;;;;;;1.42;1.33;;;22.90;59.50;;;;;;5029495;28;20370;-22
2022/06/14 02:26:41;;;;;;;1.10;1.10;;;22.90;59.50;;;;;;5032608;28;20049;-21
2022/06/14 02:29:15;;;;;;;1.33;1.23;;;22.90;59.60;;;;;;5031633;28;20097;-21
2022/06/14 02:32:08;;;;;;;1.25;1.25;;;22.90;59.50;;;;;;5033087;28;20049;-21
2022/06/14 02:34:40;;;;;;;1.10;1.10;;;22.90;59.50;;;;;;5024315;28;20048;-22
2022/06/14 02:37:11;;;;;;;0.90;0.90;;;22.80;59.40;;;;;;5029155;28;20029;-20
2022/06/14 02:39:43;;;;;;;0.88;0.88;;;22.90;59.40;;;;;;5030266;28;20029;-22
2022/06/14 02:42:20;;;;;;;1.08;1.00;;;22.90;59.50;;;;;;5029524;28;20045;-21
2022/06/14 02:44:57;;;;;;;1.20;1.20;;;22.80;59.50;;;;;;5030229;28;20128;-21
2022/06/14 02:47:33;;;;;;;0.82;0.82;;;22.80;59.40;;;;;;5015195;28;20038;-21
2022/06/14 02:50:07;;;;;;;1.00;1.00;;;22.80;59.40;;;;;;5031688;28;20052;-23
2022/06/14 02:52:35;;;;;;;1.10;1.00;;;22.80;59.40;;;;;;5033524;28;20068;-22
2022/06/14 02:55:23;;;;;;;0.90;0.90;;;22.80;59.30;;;;;;5031705;28;20068;-23
2022/06/14 02:58:21;;;;;;;0.90;0.90;;;22.80;59.40;;;;;;5030356;28;20041;-21
2022/06/14 03:00:53;;;;;;;0.93;0.93;;;22.80;59.40;;;;;;5026720;28;20097;-21
2022/06/14 03:03:27;;;;;;;0.93;0.93;;;22.80;59.40;;;;;;5032180;28;20053;-22
2022/06/14 03:05:55;;;;;;;;;;;22.80;59.40;;;;;;5031202;28;20034;-21
2022/06/14 03:08:26;;;;;;;0.90;0.90;;;22.80;59.20;;;;;;5031743;28;19921;-22
2022/06/14 03:11:08;;;;;;;0.77;0.77;;;22.80;59.30;;;;;;5015317;28;20068;-21
2022/06/14 03:13:45;;;;;;;1.50;1.40;;;22.80;59.20;;;;;;5034317;28;20029;-21
2022/06/14 03:16:19;;;;;;;0.70;0.70;;;22.80;59.30;;;;;;5032948;28;20083;-22
2022/06/14 03:18:52;;;;;;;;;;;22.80;59.40;;;;;;5037355;28;20068;-22
2022/06/14 03:21:50;;;;;;;1.95;0.80;;;22.80;59.30;;;;;;5037093;28;19913;-22
2022/06/14 03:24:26;;;;;;;0.70;0.70;;;22.80;59.30;;;;;;5044868;28;20036;-22
2022/06/14 03:26:58;;;;;;;0.77;0.77;;;22.80;59.90;;;;;;5033712;28;20136;-21
2022/06/14 03:29:45;;;;;;;0.93;0.90;;;22.80;59.20;;;;;;5034757;28;20589;-22
2022/06/14 03:32:20;;;;;;;0.80;0.80;;;22.80;59.20;;;;;;5033501;28;20044;-22
2022/06/14 03:34:49;;;;;;;1.00;1.00;;;22.80;59.30;;;;;;5034406;28;20483;-22
2022/06/14 03:37:15;;;;;;;0.88;0.88;;;22.70;59.30;;;;;;5035148;28;20429;-22
2022/06/14 03:39:50;;;;;;;0.52;0.52;;;22.80;59.30;;;;;;5036303;28;20059;-23
2022/06/14 03:42:15;;;;;;;1.05;1.05;;;22.70;59.30;;;;;;5035853;28;20133;-21
2022/06/14 03:44:41;;;;;;;0.70;0.70;;;22.70;59.40;;;;;;5031541;28;20069;-22
2022/06/14 03:47:10;;;;;;;0.65;0.60;;;22.70;59.30;;;;;;5027730;28;20038;-22
2022/06/14 03:49:40;;;;;;;0.98;0.95;;;22.70;59.20;;;;;;5034879;28;20489;-21
2022/06/14 03:52:32;;;;;;;0.95;0.88;;;22.70;59.10;;;;;;5051954;28;20136;-22
2022/06/14 03:55:20;;;;;;;0.75;0.70;;;22.80;59.30;;;;;;5020708;28;20042;-22
2022/06/14 03:58:14;;;;;;;0.73;0.60;;;22.70;59.30;;;;;;5029442;28;20042;-22
2022/06/14 04:00:48;;;;;;;0.55;0.55;;;22.70;59.40;;;;;;5028687;28;20057;-22
2022/06/14 04:03:55;;;;;;;1.02;0.93;;;22.70;59.30;;;;;;5019594;28;20124;-22
2022/06/14 04:06:23;;;;;;;0.65;0.65;;;22.70;59.40;;;;;;5036081;28;20045;-22
2022/06/14 04:09:26;;;;;;;0.80;0.80;;;22.70;59.30;;;;;;5036279;28;20048;-21
2022/06/14 04:11:59;;;;;;;0.60;0.60;;;22.70;59.40;;;;;;5033189;28;20049;-21
2022/06/14 04:14:37;;;;;;;1.90;0.75;;;22.70;59.40;;;;;;5019796;28;20040;-21
2022/06/14 04:17:06;;;;;;;0.90;0.90;;;22.70;59.40;;;;;;5035292;28;20120;-21
2022/06/14 04:20:01;;;;;;;0.77;0.77;;;22.70;59.40;;;;;;5037146;28;20033;-21
2022/06/14 04:22:45;;;;;;;0.80;0.80;;;22.70;59.40;;;;;;5036865;28;20379;-22
2022/06/14 04:25:37;;;;;;;0.77;0.77;;;22.70;59.30;;;;;;5032603;28;20033;-22
2022/06/14 04:28:06;;;;;;;0.82;0.80;;;22.70;59.30;;;;;;5037324;28;20044;-23
2022/06/14 04:30:36;;;;;;;0.80;0.80;;;22.70;59.40;;;;;;5020248;28;20040;-22
2022/06/14 04:33:21;;;;;;;0.75;0.60;;;22.70;59.40;;;;;;5031028;28;20380;-22
2022/06/14 04:35:56;;;;;;;0.95;0.80;;;22.60;59.70;;;;;;5034816;28;20045;-21
2022/06/14 04:38:35;;;;;;;1.17;0.98;;;22.70;59.80;;;;;;5033779;28;20123;-21
2022/06/14 04:41:05;;;;;;;1.10;1.00;;;22.30;54.40;;;;;;5036220;28;20036;-21
2022/06/14 04:43:43;;;;;;;1.23;1.00;;;21.60;53.50;;;;;;5035304;28;20050;-22
2022/06/14 04:46:20;;;;;;;0.93;0.80;;;21.00;54.40;;;;;;5036966;28;20099;-22
2022/06/14 04:49:22;;;;;;;3.00;1.30;;;20.60;55.00;;;;;;5035722;28;20041;-21
2022/06/14 04:51:50;;;;;;;1.30;1.10;;;20.60;54.90;;;;;;5028261;28;20298;-21
2022/06/14 04:54:24;;;;;;;5.93;1.30;;;20.40;55.30;;;;;;4675583;28;10000619;-20
2022/06/14 04:57:02;;;;;;;1.30;1.00;;;20.30;55.60;;;;;;5030482;28;20116;-21
2022/06/14 04:59:33;;;;;;;0.82;0.80;;;20.20;55.80;;;;;;5027912;28;20053;-22
2022/06/14 05:02:21;;;;;;;1.63;1.40;;;20.10;55.90;;;;;;5030226;28;20040;-21
2022/06/14 05:05:07;;;;;;;1.38;1.05;;;20.00;56.20;;;;;;5029484;28;20038;-21
2022/06/14 05:08:15;;;;;;;2.33;0.90;;;19.90;56.30;;;;;;5030578;28;20044;-21
2022/06/14 05:10:49;;;;;;;5.10;1.20;;;19.80;56.60;;;;;;5026955;28;20041;-21
2022/06/14 05:13:21;;;;;;;2.83;1.20;;;19.70;57.00;;;;;;5012634;28;20098;-20
2022/06/14 05:15:49;;;;;;;2.53;1.10;;;19.70;56.90;;;;;;5030974;28;20045;-20
2022/06/14 05:18:19;;;;;;;1.77;1.17;;;19.60;57.20;;;;;;5028456;28;20041;-20
2022/06/14 05:20:54;;;;;;;1.40;1.30;;;19.60;57.10;;;;;;5028421;28;20061;-20
2022/06/14 05:23:22;;;;;;;1.90;1.05;;;19.20;58.20;;;;;;5031454;28;20391;-21
2022/06/14 05:26:07;;;;;;;2.83;1.20;;;19.00;59.10;;;;;;5032775;28;20571;-20
2022/06/14 05:28:40;;;;;;;1.20;1.05;;;18.90;59.30;;;;;;5030822;28;20041;-21
2022/06/14 05:31:15;;;;;;;3.03;1.30;;;18.90;59.40;;;;;;5029160;28;20041;-21
2022/06/14 05:33:54;;;;;;;2.78;1.15;;;18.80;59.90;;;;;;5031141;28;20078;-21
2022/06/14 05:36:29;;;;;;;2.28;1.00;;;18.80;59.90;;;;;;5028427;28;20041;-20
2022/06/14 05:38:59;;;;;;;0.98;0.88;;;18.70;60.40;;;;;;5015238;28;20159;-20
2022/06/14 05:41:32;;;;;;;1.15;0.88;;;18.60;60.40;;;;;;5013189;28;20052;-20
2022/06/14 05:44:03;;;;;;;4.93;0.93;;;18.50;62.00;;;;;;5030333;28;20485;-20
2022/06/14 05:46:52;;;;;;;2.50;1.25;;;18.40;61.70;;;;;;5030958;28;20054;-21
2022/06/14 05:49:25;;;;;;;1.92;0.90;;;18.60;61.50;;;;;;5029556;28;20045;-21
2022/06/14 05:52:02;;;;;;;2.42;0.88;;;18.60;61.60;;;;;;5029799;28;20037;-21
2022/06/14 05:54:34;;;;;;;1.73;0.88;;;18.80;61.30;;;;;;5032882;28;20052;-20
2022/06/14 05:57:12;;;;;;;1.88;0.93;;;18.90;60.90;;;;;;5033615;28;20113;-20
2022/06/14 05:59:53;;;;;;;1.42;0.70;;;18.90;61.10;;;;;;5032131;28;20072;-21
2022/06/14 06:02:27;;;;;;;1.83;1.15;;;18.90;61.40;;;;;;5016796;28;20433;-21
2022/06/14 06:04:59;;;;;;;1.70;0.88;;;18.90;61.70;;;;;;5033952;28;20077;-21
2022/06/14 06:07:26;;;;;;;1.10;0.88;;;18.80;62.10;;;;;;5016335;28;20036;-21
2022/06/14 06:10:31;;;;;;;0.98;0.80;;;18.90;61.70;;;;;;5030337;28;20056;-20
2022/06/14 06:13:17;;;;;;;;;;;19.10;61.50;;;;;;5031829;28;20045;-20
2022/06/14 06:15:50;;;;;;;1.20;1.00;;;19.30;60.90;;;;;;5033430;28;19963;-21
2022/06/14 06:18:44;;;;;;;1.23;1.10;;;19.40;60.50;;;;;;5032725;28;20440;-20
2022/06/14 06:21:32;;;;;;;0.68;0.68;;;19.60;60.30;;;;;;5033771;28;20061;-21
2022/06/14 06:24:12;;;;;;;1.20;0.88;;;19.60;60.20;;;;;;5033207;28;20040;-21
2022/06/14 06:26:39;;;;;;;1.02;0.70;;;19.70;60.00;;;;;;5033017;28;20041;-20
2022/06/14 06:29:21;;;;;;;1.05;0.70;;;19.80;60.00;;;;;;5034033;28;20033;-21
2022/06/14 06:31:47;;;;;;;0.95;0.70;;;19.80;60.00;;;;;;5017487;28;20044;-21
2022/06/14 06:34:13;;;;;;;1.55;0.63;;;19.90;60.00;;;;;;5034630;28;20508;-21
2022/06/14 06:36:55;;;;;;;0.85;0.85;;;19.90;60.00;;;;;;5032856;28;20044;-20
2022/06/14 06:39:39;;;;;;;0.95;0.90;;;19.90;59.90;;;;;;5014091;28;20061;-21
2022/06/14 06:42:23;;;;;;;;;;;20.00;59.90;;;;;;5026089;28;20053;-21
2022/06/14 06:44:56;;;;;;;0.50;0.50;;;20.00;59.80;;;;;;5033779;28;19923;-22
2022/06/14 06:47:40;;;;;;;1.05;0.60;;;20.10;59.70;;;;;;5033638;28;20049;-20
2022/06/14 06:50:35;;;;;;;1.00;0.63;;;20.10;59.80;;;;;;5032755;28;20081;-21
2022/06/14 06:53:16;;;;;;;0.93;0.60;;;20.10;59.70;;;;;;5029072;28;20049;-21
2022/06/14 06:55:54;;;;;;;1.65;0.68;;;20.30;59.30;;;;;;5033932;28;20119;-21
2022/06/14 06:58:22;;;;;;;5.03;0.80;;;20.30;59.00;;;;;;5030706;28;20048;-21
2022/06/14 07:00:48;;;;;;;1.33;0.80;;;20.50;60.50;;;;;;5032914;28;20761;-21
2022/06/14 07:03:54;;;;;;;1.17;0.80;;;20.50;62.90;;;;;;5032631;28;20080;-21
2022/06/14 07:06:40;;;;;;;0.90;0.80;;;20.70;62.10;;;;;;4671336;28;10000544;-22
2022/06/14 07:09:16;;;;;;;1.38;0.90;;;20.60;62.70;;;;;;5022591;28;20099;-20
2022/06/14 07:11:44;;;;;;;3.83;0.90;;;20.70;62.30;;;;;;5024661;28;20048;-22
2022/06/14 07:14:26;;;;;;;1.95;0.70;;;20.70;62.00;;;;;;5028855;28;20525;-21
2022/06/14 07:17:25;;;;;;;3.22;0.70;;;20.70;61.90;;;;;;5036446;28;20048;-21
2022/06/14 07:20:01;;;;;;;1.73;0.50;;;20.80;61.80;;;;;;5028071;28;20045;-21
2022/06/14 07:22:37;;;;;;;1.15;0.57;;;20.70;61.70;;;;;;5017720;28;20144;-20
2022/06/14 07:25:10;;;;;;;0.70;0.70;;;20.70;61.70;;;;;;5028763;28;20436;-21
2022/06/14 07:27:56;;;;;;;1.15;0.60;;;20.80;61.80;;;;;;5028385;28;20506;-20
2022/06/14 07:30:23;;;;;;;2.03;0.85;;;20.80;61.50;;;;;;5013314;28;20085;-21
2022/06/14 07:32:54;;;;;;;1.20;0.70;;;20.90;61.30;;;;;;5028728;28;20056;-22
2022/06/14 07:35:43;;;;;;;0.70;0.60;;;20.90;61.20;;;;;;5028665;28;20388;-22
2022/06/14 07:38:11;;;;;;;1.23;0.93;;;20.90;61.20;;;;;;5045197;28;20045;-22
2022/06/14 07:41:00;;;;;;;0.60;0.50;;;20.90;61.10;;;;;;5026268;28;20084;-20
2022/06/14 07:43:37;;;;;;;1.00;0.60;;;20.90;60.80;;;;;;5027939;28;20049;-21
2022/06/14 07:46:07;;;;;;;0.82;0.75;;;20.90;61.00;;;;;;5030336;28;20859;-21
2022/06/14 07:48:46;;;;;;;0.93;0.60;;;21.00;60.90;;;;;;5027728;28;20052;-21
2022/06/14 07:51:14;;;;;;;0.90;0.52;;;21.00;60.80;;;;;;5030026;28;20038;-21
2022/06/14 07:53:42;;;;;;;0.93;0.70;;;21.00;60.70;;;;;;5027681;28;20041;-21
2022/06/14 07:56:19;;;;;;;0.68;0.50;;;21.00;60.70;;;;;;5029556;28;20490;-21
2022/06/14 07:58:45;;;;;;;3.97;0.80;;;21.00;60.70;;;;;;5003371;28;20478;-21
2022/06/14 08:01:17;;;;;;;1.95;0.93;;;21.00;60.70;;;;;;5031627;28;20034;-21
2022/06/14 08:04:06;;;;;;;1.55;0.60;;;21.10;60.80;;;;;;5031998;28;20042;-21
2022/06/14 08:06:38;;;;;;;1.02;0.80;;;21.10;60.90;;;;;;5025888;28;20038;-21
2022/06/14 08:09:21;;;;;;;0.88;0.68;;;21.10;61.10;;;;;;5032182;28;20393;-20
2022/06/14 08:11:49;;;;;;;2.25;0.40;;;21.10;61.20;;;;;;5032064;28;20521;-21
2022/06/14 08:14:45;;;;;;;0.47;0.47;;;21.20;61.40;;;;;;5032689;28;20042;-20
2022/06/14 08:17:11;;;;;;;0.88;0.57;;;21.10;61.10;;;;;;5030902;28;20080;-21
2022/06/14 08:19:42;;;;;;;0.68;0.63;;;21.20;60.90;;;;;;5031826;28;20072;-21
2022/06/14 08:22:11;;;;;;;0.40;0.40;;;21.20;60.90;;;;;;5032949;28;20083;-21
2022/06/14 08:24:41;;;;;;;0.93;0.77;;;21.20;60.80;;;;;;5023407;28;20658;-20
2022/06/14 08:27:11;;;;;;;2.30;0.55;;;21.20;60.80;;;;;;5014966;28;20049;-21
2022/06/14 08:29:48;;;;;;;3.28;0.65;;;21.20;60.70;;;;;;5030110;28;20043;-21
2022/06/14 08:32:23;;;;;;;1.02;0.60;;;21.30;60.60;;;;;;5031484;28;20037;-21
2022/06/14 08:34:54;;;;;;;1.23;0.30;;;21.30;60.70;;;;;;5031457;28;20049;-22
2022/06/14 08:37:40;;;;;;;0.52;0.52;;;21.30;60.40;;;;;;5028803;28;20563;-21
2022/06/14 08:40:24;;;;;;;0.60;0.60;;;21.30;60.10;;;;;;5030144;28;20041;-21
2022/06/14 08:42:57;;;;;;;0.65;0.55;;;21.40;60.10;;;;;;5030086;28;20052;-21
2022/06/14 08:45:44;;;;;;;1.13;0.75;;;21.40;60.00;;;;;;5033714;28;20052;-21
2022/06/14 08:48:39;;;;;;;0.47;0.47;;;21.40;60.00;;;;;;5033880;28;20366;-21
2022/06/14 08:51:20;;;;;;;;;;;21.40;60.20;;;;;;5039937;28;20453;-21
2022/06/14 08:53:58;;;;;;;0.40;0.40;;;21.40;60.10;;;;;;5025847;28;19913;-21
2022/06/14 08:56:51;;;;;;;0.82;0.47;;;21.40;60.10;;;;;;5034645;28;20080;-21
2022/06/14 08:59:45;;;;;;;2.80;0.57;;;21.40;60.10;;;;;;5030199;28;20076;-22
2022/06/14 09:02:42;;;;;;;0.63;0.60;;;21.40;60.00;;;;;;5029744;28;20033;-21
2022/06/14 09:05:41;;;;;;;0.70;0.60;;;21.40;60.00;;;;;;5027581;28;20033;-21
2022/06/14 09:08:12;;;;;;;0.50;0.50;;;21.40;59.90;;;;;;5026118;28;20041;-21
2022/06/14 09:11:16;;;;;;;0.60;0.40;;;21.40;59.90;;;;;;5035706;28;20044;-21
2022/06/14 09:13:56;;;;;;;1.27;0.50;;;21.50;59.80;;;;;;5021914;28;20116;-21
2022/06/14 09:16:38;;;;;;;2.03;0.60;;;21.50;60.60;;;;;;5029109;28;20050;-21
2022/06/14 09:19:12;;;;;;;0.77;0.50;;;21.50;59.80;;;;;;5007745;28;20129;-21
2022/06/14 09:21:46;;;;;;;;;;;21.50;59.80;;;;;;5048432;28;20033;-21
2022/06/14 09:24:34;;;;;;;0.47;0.47;;;21.50;59.80;;;;;;5031591;28;19924;-21
2022/06/14 09:27:52;;;;;;;0.40;0.40;;;21.50;59.80;;;;;;5034088;28;20050;-21
2022/06/14 09:30:42;;;;;;;0.40;0.40;;;21.50;59.80;;;;;;5022514;28;20379;-21
2022/06/14 09:33:34;;;;;;;0.50;0.50;;;21.50;59.80;;;;;;5030688;28;20199;-21
2022/06/14 09:36:14;;;;;;;0.60;0.40;;;21.60;59.80;;;;;;5024021;28;20056;-21
2022/06/14 09:38:59;;;;;;;0.70;0.60;;;21.60;59.70;;;;;;5035522;28;20072;-20
2022/06/14 09:41:37;;;;;;;0.60;0.55;;;21.60;59.80;;;;;;5028208;28;20079;-22
2022/06/14 09:44:20;;;;;;;2.03;0.50;;;21.60;59.80;;;;;;5030371;28;20099;-21
2022/06/14 09:46:58;;;;;;;1.17;0.30;;;21.60;59.80;;;;;;5032289;28;20068;-21
2022/06/14 09:49:55;;;;;;;0.63;0.40;;;21.60;59.80;;;;;;5033188;28;20041;-21
2022/06/14 09:52:32;;;;;;;0.73;0.60;;;21.60;59.80;;;;;;5041316;28;20060;-21
2022/06/14 09:55:13;;;;;;;0.50;0.50;;;21.60;59.60;;;;;;5030104;28;20052;-21
2022/06/14 09:57:42;;;;;;;0.45;0.30;;;21.60;59.50;;;;;;5027748;28;20041;-21
2022/06/14 10:00:13;;;;;;;0.47;0.40;;;21.60;59.40;;;;;;5035591;28;20402;-21
2022/06/14 10:02:44;;;;;;;0.57;0.47;;;21.70;59.30;;;;;;5031942;28;20045;-21
2022/06/14 10:05:35;;;;;;;0.73;0.35;;;21.60;59.30;;;;;;5035601;28;20033;-22
2022/06/14 10:08:41;;;;;;;0.57;0.40;;;21.70;59.30;;;;;;5033358;28;20124;-21
2022/06/14 10:11:42;;;;;;;0.30;0.30;;;21.70;59.30;;;;;;4661719;28;9999715;-21
2022/06/14 10:14:26;;;;;;;0.50;0.50;;;21.70;59.30;;;;;;5045204;28;20048;-21
2022/06/14 10:17:13;;;;;;;0.88;0.50;;;21.70;59.30;;;;;;5031156;28;20124;-21
2022/06/14 10:20:13;;;;;;;2.40;0.60;;;21.70;59.30;;;;;;5029502;28;20080;-20
2022/06/14 10:22:49;;;;;;;0.55;0.55;;;21.70;59.30;;;;;;5030479;28;20048;-26
2022/06/14 10:25:20;;;;;;;0.77;0.73;;;21.70;59.30;;;;;;5045786;28;20743;-21
2022/06/14 10:28:12;;;;;;;0.60;0.50;;;21.70;59.30;;;;;;5028622;28;20045;-21
2022/06/14 10:31:08;;;;;;;0.50;0.50;;;21.70;59.30;;;;;;5028681;28;20520;-21
2022/06/14 10:33:53;;;;;;;0.45;0.45;;;21.80;59.30;;;;;;5030103;28;20171;-21
2022/06/14 10:36:46;;;;;;;1.23;0.55;;;21.70;59.20;;;;;;5031576;28;20061;-22
2022/06/14 10:39:18;;;;;;;0.65;0.65;;;21.70;59.30;;;;;;5030838;28;20137;-21
2022/06/14 10:41:49;;;;;;;0.50;0.40;;;21.70;59.30;;;;;;5031154;28;20033;-21
2022/06/14 10:44:30;;;;;;;0.40;0.40;;;21.80;59.20;;;;;;5030025;28;20386;-21
2022/06/14 10:47:01;;;;;;;1.27;0.60;;;21.80;59.20;;;;;;5020111;28;20105;-21
2022/06/14 10:49:33;;;;;;;0.47;0.47;;;21.80;59.10;;;;;;5031386;28;20041;-21
2022/06/14 10:52:07;;;;;;;0.40;0.40;;;21.80;59.20;;;;;;5028110;28;20053;-20
2022/06/14 10:54:44;;;;;;;0.50;0.50;;;21.90;59.30;;;;;;5028582;28;20037;-21
2022/06/14 10:57:22;;;;;;;0.65;0.50;;;21.90;59.30;;;;;;5024457;28;20025;-21
2022/06/14 11:00:18;;;;;;;0.70;0.70;;;21.90;59.20;;;;;;5027608;28;20057;-21
2022/06/14 11:03:07;;;;;;;0.43;0.22;;;21.90;59.20;;;;;;5025955;28;20075;-21
2022/06/14 11:05:45;;;;;;;0.38;0.30;;;21.90;59.10;;;;;;5030952;28;20041;-21
2022/06/14 11:08:28;;;;;;;0.65;0.40;;;21.90;59.10;;;;;;5030024;28;20042;-21
2022/06/14 11:11:13;;;;;;;0.63;0.43;;;21.90;59.00;;;;;;5035597;28;20405;-21
2022/06/14 11:14:19;;;;;;;0.40;0.40;;;21.90;59.20;;;;;;5026993;28;20127;-21
2022/06/14 11:17:14;;;;;;;0.60;0.60;;;21.90;59.20;;;;;;5039203;28;20065;-22
2022/06/14 11:19:55;;;;;;;0.63;0.60;;;21.90;59.20;;;;;;5036713;28;20490;-21
2022/06/14 11:22:40;;;;;;;0.40;0.40;;;21.90;59.10;;;;;;5028199;28;20087;-21
2022/06/14 11:25:15;;;;;;;0.50;0.50;;;22.00;59.10;;;;;;5029096;28;20386;-22
2022/06/14 11:28:06;;;;;;;0.40;0.40;;;22.00;59.00;;;;;;5041662;28;20037;-21
2022/06/14 11:30:43;;;;;;;0.40;0.40;;;22.00;59.10;;;;;;5029324;28;20037;-23
2022/06/14 11:33:30;;;;;;;0.40;0.40;;;22.00;59.10;;;;;;5031884;28;20129;-22
2022/06/14 11:35:58;;;;;;;0.30;0.30;;;22.00;59.20;;;;;;5033512;28;20076;-21
2022/06/14 11:38:43;;;;;;;0.30;0.30;;;22.00;59.00;;;;;;5034187;28;20059;-21
2022/06/14 11:41:08;;;;;;;;;;;22.10;59.00;;;;;;5032790;28;20046;-21
2022/06/14 11:43:47;;;;;;;2.55;0.40;;;22.10;59.00;;;;;;5035310;28;19994;-21
2022/06/14 11:46:19;;;;;;;0.85;0.60;;;22.10;59.00;;;;;;5036105;28;20057;-22
2022/06/14 11:49:00;;;;;;;0.40;0.40;;;22.10;59.00;;;;;;5028685;28;20056;-21
2022/06/14 11:52:11;;;;;;;0.85;0.65;;;22.10;58.90;;;;;;5026501;28;20128;-21
2022/06/14 11:54:56;;;;;;;0.45;0.45;;;22.10;58.80;;;;;;5034916;28;20045;-21
2022/06/14 11:57:36;;;;;;;0.40;0.40;;;22.10;58.80;;;;;;5034511;28;20050;-20
2022/06/14 12:00:41;;;;;;;0.60;0.60;;;22.10;58.80;;;;;;5013822;28;20045;-20
2022/06/14 12:03:17;;;;;;;0.75;0.45;;;22.10;58.90;;;;;;5031841;28;20029;-21
2022/06/14 12:06:06;;;;;;;0.65;0.40;;;22.10;58.90;;;;;;5033045;28;20039;-21
2022/06/14 12:08:37;;;;;;;0.98;0.70;;;22.10;59.00;;;;;;5022627;28;20071;-21
2022/06/14 12:11:08;;;;;;;1.83;0.60;;;22.10;58.90;;;;;;5034198;28;20049;-21
2022/06/14 12:13:59;;;;;;;1.98;0.60;;;22.10;58.90;;;;;;5030897;28;20126;-21
2022/06/14 12:16:38;;;;;;;0.60;0.40;;;22.10;59.00;;;;;;5033225;28;20076;-21
2022/06/14 12:19:10;;;;;;;1.50;0.70;;;22.10;58.80;;;;;;5035319;28;20033;-21
2022/06/14 12:21:51;;;;;;;0.47;0.45;;;22.10;58.90;;;;;;5036986;28;20037;-21
2022/06/14 12:24:21;;;;;;;1.67;0.50;;;22.10;58.90;;;;;;5017439;28;20095;-21
2022/06/14 12:26:49;;;;;;;1.13;0.70;;;22.20;58.90;;;;;;5017782;28;20046;-21
2022/06/14 12:29:20;;;;;;;0.80;0.60;;;22.20;58.90;;;;;;5036640;28;20116;-20
2022/06/14 12:32:20;;;;;;;0.70;0.40;;;22.20;58.90;;;;;;5028974;28;20033;-22
2022/06/14 12:34:57;;;;;;;0.95;0.50;;;22.20;59.00;;;;;;5033661;28;20046;-21
2022/06/14 12:37:41;;;;;;;0.43;0.40;;;22.20;58.90;;;;;;5037271;28;20049;-21
2022/06/14 12:40:19;;;;;;;0.40;0.40;;;22.20;58.80;;;;;;5034546;28;20042;-21
2022/06/14 12:43:04;;;;;;;0.60;0.52;;;22.20;58.90;;;;;;5034667;28;20041;-21
2022/06/14 12:45:39;;;;;;;0.57;0.57;;;22.20;59.00;;;;;;5025192;28;20033;-21
2022/06/14 12:48:07;;;;;;;0.50;0.50;;;22.20;58.90;;;;;;5034671;28;20045;-21
2022/06/14 12:50:36;;;;;;;0.40;0.40;;;22.20;58.90;;;;;;5031146;28;20052;-22
2022/06/14 12:53:15;;;;;;;0.68;0.50;;;22.20;58.90;;;;;;5021667;28;20056;-21
2022/06/14 12:55:48;;;;;;;0.50;0.50;;;22.20;58.90;;;;;;5035532;28;20045;-21
2022/06/14 12:58:14;;;;;;;0.80;0.63;;;22.20;58.80;;;;;;5034926;28;20053;-21
2022/06/14 13:00:45;;;;;;;0.85;0.50;;;22.20;59.50;;;;;;5031980;28;20064;-21
2022/06/14 13:03:30;;;;;;;0.50;0.50;;;22.20;58.80;;;;;;5034954;28;20042;-21
2022/06/14 13:06:16;;;;;;;0.38;0.32;;;22.20;58.80;;;;;;5034694;28;20125;-21
2022/06/14 13:08:52;;;;;;;0.55;0.30;;;22.30;58.80;;;;;;5020841;28;20100;-21
2022/06/14 13:11:44;;;;;;;0.40;0.40;;;22.30;58.80;;;;;;5016411;28;20045;-21
2022/06/14 13:14:42;;;;;;;1.45;0.60;;;22.30;58.70;;;;;;5013823;28;20045;-21
2022/06/14 13:17:49;;;;;;;0.73;0.30;;;22.30;58.70;;;;;;5023908;28;20045;-21
2022/06/14 13:20:36;;;;;;;0.22;0.22;;;22.30;58.70;;;;;;5033852;28;20041;-21
2022/06/14 13:23:14;;;;;;;0.60;0.40;;;22.40;58.60;;;;;;5032447;28;20531;-21
2022/06/14 13:25:53;;;;;;;0.38;0.25;;;22.30;58.60;;;;;;5030054;28;20139;-21
2022/06/14 13:28:36;;;;;;;0.65;0.40;;;22.40;58.70;;;;;;5032183;28;20053;-21
2022/06/14 13:31:30;;;;;;;0.32;0.32;;;22.40;58.70;;;;;;5029713;28;20048;-21
2022/06/14 13:34:03;;;;;;;1.02;0.35;;;22.40;58.60;;;;;;5047382;28;20048;-21
2022/06/14 13:37:01;;;;;;;0.50;0.40;;;22.40;58.60;;;;;;5030990;28;20333;-21
2022/06/14 13:39:26;;;;;;;0.30;0.30;;;22.40;58.60;;;;;;5013445;28;20049;-21
2022/06/14 13:42:01;;;;;;;0.40;0.40;;;22.40;58.60;;;;;;5035186;28;20502;-21
2022/06/14 13:45:08;;;;;;;0.30;0.30;;;22.40;58.60;;;;;;5019051;28;20124;-21
2022/06/14 13:47:45;;;;;;;0.30;0.30;;;22.40;58.50;;;;;;5016478;28;20065;-21
2022/06/14 13:50:25;;;;;;;0.40;0.32;;;22.40;58.50;;;;;;5015228;28;20070;-21
2022/06/14 13:52:52;;;;;;;0.50;0.47;;;22.40;58.50;;;;;;5023228;28;20048;-22